Time;durP1;ratioP1;P1;durP2;ratioP2;P2;SDS_P1;SDS_P2;PMS_P1;PMS_P2;Temp;Humidity;BMP_temperature;BMP_pressure;BME280_temperature;BME280_humidity;BME280_pressure;Samples;Min_cycle;Max_cycle;Signal;HPM_P1;HPM_P2
2023/04/08 00:00:21;;;;;;;14.95;8.60;;;6.40;99.90;;;;;;4956712;28;20038;-75
2023/04/08 00:02:47;;;;;;;13.23;9.15;;;6.40;99.90;;;;;;4955542;28;20538;-76
2023/04/08 00:05:12;;;;;;;13.90;9.13;;;6.80;99.90;;;;;;4951169;28;20125;-75
2023/04/08 00:07:38;;;;;;;12.10;8.80;;;6.30;99.90;;;;;;4948442;28;20321;-75
2023/04/08 00:10:05;;;;;;;13.60;8.52;;;6.40;99.90;;;;;;4953085;28;20035;-75
2023/04/08 00:12:31;;;;;;;13.02;8.73;;;6.30;99.90;;;;;;4971402;28;20062;-77
2023/04/08 00:14:57;;;;;;;11.95;8.30;;;6.30;99.90;;;;;;4955237;28;20060;-75
2023/04/08 00:17:23;;;;;;;14.05;9.00;;;6.30;99.90;;;;;;4985073;28;20487;-78
2023/04/08 00:19:48;;;;;;;13.43;8.70;;;6.30;99.90;;;;;;4968010;28;20150;-75
2023/04/08 00:22:14;;;;;;;12.50;8.77;;;6.20;99.90;;;;;;4983763;28;20069;-75
2023/04/08 00:24:40;;;;;;;10.65;7.82;;;6.30;99.90;;;;;;4968928;28;20121;-75
2023/04/08 00:27:06;;;;;;;11.10;8.18;;;6.20;99.90;;;;;;4977741;28;20044;-75
2023/04/08 00:29:31;;;;;;;15.63;8.57;;;6.20;99.90;;;;;;4961433;28;20144;-79
2023/04/08 00:31:57;;;;;;;12.40;8.35;;;6.70;99.90;;;;;;4981591;28;20511;-74
2023/04/08 00:34:23;;;;;;;17.42;8.82;;;6.20;99.90;;;;;;4979652;28;20038;-75
2023/04/08 00:36:49;;;;;;;12.68;8.45;;;6.20;99.90;;;;;;4947330;28;20495;-75
2023/04/08 00:39:14;;;;;;;11.38;7.70;;;6.10;99.90;;;;;;4956455;28;20050;-75
2023/04/08 00:41:40;;;;;;;13.95;8.40;;;6.10;99.90;;;;;;4970802;28;20045;-76
2023/04/08 00:44:06;;;;;;;14.40;8.38;;;6.10;99.90;;;;;;4959179;28;20042;-78
2023/04/08 00:46:41;;;;;;;12.10;7.90;;;6.10;99.90;;;;;;4972581;28;20038;-76
2023/04/08 00:49:07;;;;;;;14.48;8.07;;;6.00;99.90;;;;;;4976646;28;20041;-75
2023/04/08 00:51:36;;;;;;;12.30;8.23;;;6.00;99.90;;;;;;4976731;28;20042;-75
2023/04/08 00:54:06;;;;;;;12.50;8.63;;;6.00;99.90;;;;;;4952410;28;20302;-75
2023/04/08 00:56:33;;;;;;;12.38;8.10;;;6.00;99.90;;;;;;4981038;28;20054;-77
2023/04/08 00:58:59;;;;;;;13.35;8.43;;;6.00;99.90;;;;;;4973209;28;20039;-76
2023/04/08 01:01:50;;;;;;;11.63;7.80;;;6.00;99.90;;;;;;4951489;28;20452;-75
2023/04/08 01:04:21;;;;;;;13.30;7.85;;;5.90;99.90;;;;;;4966161;28;20045;-77
2023/04/08 01:07:00;;;;;;;15.80;8.23;;;5.90;99.90;;;;;;4972237;28;20076;-76
2023/04/08 01:09:31;;;;;;;12.13;8.10;;;6.00;99.90;;;;;;4969991;28;20070;-75
2023/04/08 01:12:01;;;;;;;13.60;8.20;;;5.90;99.90;;;;;;4971622;28;20122;-78
2023/04/08 01:14:27;;;;;;;13.30;7.80;;;5.90;99.90;;;;;;4983530;28;20490;-75
2023/04/08 01:16:58;;;;;;;14.00;8.57;;;5.90;99.90;;;;;;4975962;28;20074;-75
2023/04/08 01:19:31;;;;;;;12.05;8.45;;;5.90;99.90;;;;;;4976287;28;20046;-75
2023/04/08 01:22:09;;;;;;;12.10;7.82;;;5.90;99.90;;;;;;4972390;28;20046;-76
2023/04/08 01:24:39;;;;;;;14.18;8.70;;;5.90;99.90;;;;;;4975463;28;20046;-75
2023/04/08 01:27:06;;;;;;;13.95;8.60;;;5.80;99.90;;;;;;4975859;28;20046;-75
2023/04/08 01:29:34;;;;;;;13.90;8.18;;;5.80;99.90;;;;;;4970283;28;20053;-75
2023/04/08 01:32:00;;;;;;;12.73;8.32;;;5.80;99.90;;;;;;4994265;28;20035;-75
2023/04/08 01:34:28;;;;;;;12.63;8.40;;;5.80;99.90;;;;;;4967804;28;20051;-75
2023/04/08 01:36:55;;;;;;;13.77;7.80;;;5.80;99.90;;;;;;4968794;28;20038;-75
2023/04/08 01:39:22;;;;;;;14.65;8.75;;;5.80;99.90;;;;;;4992461;28;20038;-74
2023/04/08 01:41:49;;;;;;;15.23;8.80;;;5.70;99.90;;;;;;4973740;28;20050;-75
2023/04/08 01:44:16;;;;;;;13.60;8.68;;;5.70;99.90;;;;;;4973786;28;20390;-75
2023/04/08 01:46:42;;;;;;;17.35;9.05;;;5.70;99.90;;;;;;4978731;28;20070;-75
2023/04/08 01:49:09;;;;;;;14.43;9.23;;;5.70;99.90;;;;;;4960698;28;20030;-75
2023/04/08 01:51:37;;;;;;;14.50;8.63;;;5.70;99.90;;;;;;4985167;28;20046;-75
2023/04/08 01:54:02;;;;;;;13.60;8.93;;;5.70;99.90;;;;;;4968966;28;20607;-75
2023/04/08 01:56:31;;;;;;;16.17;9.10;;;5.70;99.90;;;;;;4972220;28;20054;-76
2023/04/08 01:58:59;;;;;;;14.52;9.05;;;5.60;99.90;;;;;;4959934;28;20034;-75
2023/04/08 02:01:28;;;;;;;14.70;9.35;;;5.60;99.90;;;;;;4969342;28;20077;-75
2023/04/08 02:03:56;;;;;;;13.80;8.38;;;5.60;99.90;;;;;;4957712;28;20035;-75
2023/04/08 02:06:22;;;;;;;14.82;9.48;;;5.60;99.90;;;;;;4969991;28;20049;-75
2023/04/08 02:08:48;;;;;;;15.35;9.80;;;5.60;99.90;;;;;;4952055;28;20064;-75
2023/04/08 02:11:13;;;;;;;15.30;9.20;;;5.60;99.90;;;;;;4963628;28;20483;-75
2023/04/08 02:13:39;;;;;;;16.88;9.68;;;5.60;99.90;;;;;;4973718;28;20556;-76
2023/04/08 02:16:21;;;;;;;15.68;9.48;;;5.50;99.90;;;;;;4957053;28;20118;-77
2023/04/08 02:18:57;;;;;;;14.15;8.98;;;5.50;99.90;;;;;;4971850;28;20042;-75
2023/04/08 02:21:29;;;;;;;16.35;9.43;;;5.50;99.90;;;;;;4963587;28;20046;-75
2023/04/08 02:23:58;;;;;;;14.30;9.35;;;5.50;99.90;;;;;;4959668;28;20042;-76
2023/04/08 02:26:25;;;;;;;15.20;9.32;;;5.50;99.90;;;;;;4967433;28;20039;-75
2023/04/08 02:28:53;;;;;;;16.42;9.88;;;5.40;99.90;;;;;;4968841;28;20509;-76
2023/04/08 02:31:20;;;;;;;13.55;9.05;;;5.40;99.90;;;;;;4976058;28;20081;-76
2023/04/08 02:33:47;;;;;;;17.73;9.50;;;5.40;99.90;;;;;;4976611;28;20395;-75
2023/04/08 02:36:14;;;;;;;15.75;10.10;;;5.40;99.90;;;;;;4979914;28;20054;-75
2023/04/08 02:38:40;;;;;;;13.70;9.05;;;5.40;99.90;;;;;;4985629;28;20048;-75
2023/04/08 02:41:05;;;;;;;22.70;9.98;;;5.40;99.90;;;;;;4976421;28;20098;-78
2023/04/08 02:43:31;;;;;;;16.73;10.60;;;5.30;99.90;;;;;;4995152;28;20046;-74
2023/04/08 02:46:02;;;;;;;16.13;9.82;;;5.30;99.90;;;;;;4963877;28;20417;-75
2023/04/08 02:48:28;;;;;;;17.33;9.68;;;5.30;99.90;;;;;;4958589;28;20043;-75
2023/04/08 02:50:54;;;;;;;17.77;10.63;;;5.30;99.90;;;;;;4968428;28;20637;-76
2023/04/08 02:53:20;;;;;;;15.38;9.63;;;5.20;99.90;;;;;;4970550;28;20093;-75
2023/04/08 02:55:46;;;;;;;15.98;10.10;;;5.20;99.90;;;;;;4950549;28;20125;-76
2023/04/08 02:58:11;;;;;;;16.20;10.10;;;5.20;99.90;;;;;;4968557;28;20130;-75
2023/04/08 03:00:38;;;;;;;15.75;9.88;;;5.20;99.90;;;;;;4950271;28;20043;-79
2023/04/08 03:03:05;;;;;;;20.33;10.13;;;5.20;99.90;;;;;;4956633;28;20493;-75
2023/04/08 03:05:31;;;;;;;17.08;10.38;;;5.10;99.90;;;;;;4957807;28;20078;-80
2023/04/08 03:07:57;;;;;;;17.25;10.27;;;5.10;99.90;;;;;;4980037;28;20038;-76
2023/04/08 03:10:22;;;;;;;16.10;10.52;;;5.10;99.90;;;;;;4963711;28;20039;-75
2023/04/08 03:12:48;;;;;;;16.98;10.57;;;5.10;99.90;;;;;;4980572;28;20035;-75
2023/04/08 03:15:13;;;;;;;17.25;10.82;;;5.10;99.90;;;;;;4969678;28;20092;-75
2023/04/08 03:17:39;;;;;;;17.85;10.73;;;5.00;99.90;;;;;;4967578;28;20034;-76
2023/04/08 03:20:05;;;;;;;15.32;10.00;;;5.00;99.90;;;;;;4960514;28;20122;-75
2023/04/08 03:22:32;;;;;;;16.85;10.65;;;5.10;99.90;;;;;;4949619;28;20051;-75
2023/04/08 03:24:58;;;;;;;20.75;11.65;;;5.00;99.90;;;;;;4967307;28;20121;-75
2023/04/08 03:27:23;;;;;;;21.08;11.20;;;5.00;99.90;;;;;;4958940;28;20041;-75
2023/04/08 03:29:49;;;;;;;17.90;10.95;;;5.00;99.90;;;;;;4974151;28;20506;-74
2023/04/08 03:32:15;;;;;;;16.92;10.85;;;5.00;99.90;;;;;;4989247;28;20038;-75
2023/04/08 03:34:40;;;;;;;18.40;11.65;;;5.00;99.90;;;;;;4972156;28;20511;-75
2023/04/08 03:37:06;;;;;;;16.10;10.77;;;4.90;99.90;;;;;;4971580;28;20566;-75
2023/04/08 03:39:32;;;;;;;20.13;11.15;;;4.90;99.90;;;;;;4979061;28;20038;-75
2023/04/08 03:41:59;;;;;;;17.73;11.35;;;4.90;99.90;;;;;;4973667;28;20042;-76
2023/04/08 03:44:25;;;;;;;16.65;11.10;;;4.90;99.90;;;;;;4967320;28;20057;-76
2023/04/08 03:46:51;;;;;;;24.15;11.20;;;4.90;99.90;;;;;;4965960;28;20050;-76
2023/04/08 03:49:17;;;;;;;18.15;11.35;;;4.80;99.90;;;;;;4966805;28;20038;-75
2023/04/08 03:51:42;;;;;;;21.65;12.88;;;4.80;99.90;;;;;;4965056;28;20446;-75
2023/04/08 03:54:08;;;;;;;18.60;12.32;;;4.80;99.90;;;;;;4987955;28;20041;-75
2023/04/08 03:56:34;;;;;;;21.00;12.02;;;4.80;99.90;;;;;;4972679;28;20053;-75
2023/04/08 03:58:59;;;;;;;17.58;11.45;;;4.70;99.90;;;;;;4968841;28;20097;-76
2023/04/08 04:01:25;;;;;;;23.25;12.80;;;4.70;99.90;;;;;;4981103;28;20483;-76
2023/04/08 04:03:50;;;;;;;21.05;12.25;;;4.70;99.90;;;;;;4970162;28;20055;-75
2023/04/08 04:06:16;;;;;;;20.45;12.98;;;4.70;99.90;;;;;;4967238;28;20045;-75
2023/04/08 04:08:42;;;;;;;20.58;13.10;;;4.70;99.90;;;;;;4987504;28;20046;-76
2023/04/08 04:11:07;;;;;;;18.45;11.65;;;4.70;99.90;;;;;;4972895;28;20124;-76
2023/04/08 04:13:33;;;;;;;19.48;12.50;;;4.60;99.90;;;;;;4974249;28;20392;-76
2023/04/08 04:15:58;;;;;;;24.23;13.32;;;4.70;99.90;;;;;;4971083;28;20093;-76
2023/04/08 04:18:24;;;;;;;20.60;12.05;;;4.60;99.90;;;;;;4950482;28;20071;-76
2023/04/08 04:20:49;;;;;;;17.80;11.85;;;4.60;99.90;;;;;;4953987;28;20045;-76
2023/04/08 04:23:15;;;;;;;21.92;13.32;;;4.60;99.90;;;;;;4980192;28;20027;-76
2023/04/08 04:25:41;;;;;;;19.83;12.45;;;4.50;99.90;;;;;;4950153;28;20072;-76
2023/04/08 04:28:08;;;;;;;19.73;12.80;;;4.50;99.90;;;;;;4952826;28;20402;-76
2023/04/08 04:30:39;;;;;;;22.05;13.65;;;4.50;99.90;;;;;;4969289;28;20050;-76
2023/04/08 04:33:05;;;;;;;23.33;13.00;;;4.50;99.90;;;;;;4967121;28;20153;-76
2023/04/08 04:35:30;;;;;;;22.83;13.98;;;4.50;99.90;;;;;;4974824;28;20513;-76
2023/04/08 04:37:56;;;;;;;21.65;13.43;;;4.40;99.90;;;;;;4979611;28;20097;-76
2023/04/08 04:40:22;;;;;;;21.25;13.10;;;4.50;99.90;;;;;;4970116;28;20457;-76
2023/04/08 04:42:47;;;;;;;21.80;13.77;;;4.40;99.90;;;;;;4964949;28;20047;-76
2023/04/08 04:45:13;;;;;;;24.35;14.65;;;4.40;99.90;;;;;;4980419;28;20089;-76
2023/04/08 04:47:39;;;;;;;20.98;13.77;;;4.40;99.90;;;;;;4974153;28;20042;-76
2023/04/08 04:50:05;;;;;;;22.70;13.40;;;4.50;99.90;;;;;;4975578;28;20044;-76
2023/04/08 04:52:31;;;;;;;22.10;14.00;;;4.50;99.90;;;;;;4961068;28;20125;-76
2023/04/08 04:54:57;;;;;;;23.95;14.43;;;4.40;99.90;;;;;;4965978;28;20125;-76
2023/04/08 04:57:23;;;;;;;21.40;14.27;;;4.40;99.90;;;;;;4964824;28;20047;-76
2023/04/08 04:59:48;;;;;;;24.50;14.50;;;4.50;99.90;;;;;;4958392;28;20442;-76
2023/04/08 05:02:14;;;;;;;22.40;14.00;;;4.40;99.90;;;;;;4974845;28;20138;-76
2023/04/08 05:04:39;;;;;;;22.75;14.43;;;4.40;99.90;;;;;;4969009;28;20054;-76
2023/04/08 05:07:05;;;;;;;21.02;14.05;;;4.40;99.90;;;;;;4970160;28;20109;-75
2023/04/08 05:09:31;;;;;;;23.75;15.02;;;4.40;99.90;;;;;;4967610;28;20035;-75
2023/04/08 05:11:56;;;;;;;23.02;14.85;;;4.40;99.90;;;;;;4972668;28;20486;-75
2023/04/08 05:14:22;;;;;;;23.23;14.15;;;4.50;99.90;;;;;;4954935;28;20486;-75
2023/04/08 05:16:47;;;;;;;26.85;16.17;;;4.50;99.90;;;;;;4959819;28;20129;-76
2023/04/08 05:19:13;;;;;;;24.92;15.00;;;4.50;99.90;;;;;;4993286;28;20035;-76
2023/04/08 05:21:39;;;;;;;25.95;15.85;;;4.50;99.90;;;;;;4996790;28;20042;-77
2023/04/08 05:24:04;;;;;;;24.13;15.27;;;4.60;99.90;;;;;;4966049;28;20490;-76
2023/04/08 05:26:30;;;;;;;30.67;15.95;;;4.60;99.90;;;;;;4975116;28;20053;-77
2023/04/08 05:28:56;;;;;;;26.63;15.80;;;4.60;99.90;;;;;;4965106;28;20110;-76
2023/04/08 05:31:21;;;;;;;26.02;16.15;;;4.70;99.90;;;;;;4963094;28;20525;-77
2023/04/08 05:33:47;;;;;;;27.85;15.65;;;4.70;99.90;;;;;;4988720;28;20546;-77
2023/04/08 05:36:13;;;;;;;25.13;15.88;;;4.70;99.90;;;;;;4990353;28;20089;-76
2023/04/08 05:38:41;;;;;;;26.05;16.02;;;4.70;99.90;;;;;;4962764;28;20050;-76
2023/04/08 05:41:06;;;;;;;26.63;16.17;;;4.80;99.90;;;;;;4968447;28;20046;-76
2023/04/08 05:43:32;;;;;;;23.58;15.63;;;4.80;99.90;;;;;;4967740;28;20100;-77
2023/04/08 05:45:58;;;;;;;26.65;15.70;;;4.80;99.90;;;;;;4966933;28;20101;-76
2023/04/08 05:48:24;;;;;;;26.13;16.92;;;4.80;99.90;;;;;;4988321;28;20064;-78
2023/04/08 05:50:50;;;;;;;27.52;16.25;;;4.90;99.90;;;;;;4970071;28;20051;-76
2023/04/08 05:53:15;;;;;;;25.95;16.75;;;4.90;99.90;;;;;;4993265;28;20109;-76
2023/04/08 05:55:41;;;;;;;25.85;16.33;;;4.90;99.90;;;;;;4976355;28;20517;-76
2023/04/08 05:58:07;;;;;;;25.17;16.23;;;5.00;99.90;;;;;;4966442;28;20155;-76
2023/04/08 06:00:32;;;;;;;29.15;17.05;;;5.00;99.90;;;;;;4965773;28;20518;-76
2023/04/08 06:02:58;;;;;;;23.92;15.23;;;5.00;99.90;;;;;;4990304;28;20052;-76
2023/04/08 06:05:24;;;;;;;26.77;16.38;;;5.10;99.90;;;;;;4978695;28;20042;-77
2023/04/08 06:07:49;;;;;;;27.88;16.50;;;5.10;99.90;;;;;;4972631;28;20038;-75
2023/04/08 06:10:15;;;;;;;29.77;17.00;;;5.10;99.90;;;;;;4959471;28;20495;-76
2023/04/08 06:12:40;;;;;;;26.70;17.35;;;5.20;99.90;;;;;;4970318;28;20037;-75
2023/04/08 06:15:07;;;;;;;25.45;16.33;;;5.20;99.90;;;;;;4968930;28;20090;-75
2023/04/08 06:17:36;;;;;;;24.15;15.35;;;5.20;99.90;;;;;;4971883;28;20037;-76
2023/04/08 06:20:02;;;;;;;27.17;16.42;;;5.20;99.90;;;;;;4993052;28;20402;-75
2023/04/08 06:22:28;;;;;;;25.67;16.33;;;5.20;99.90;;;;;;4988048;28;20238;-76
2023/04/08 06:24:54;;;;;;;26.02;16.80;;;5.30;99.90;;;;;;4976631;28;20067;-76
2023/04/08 06:27:19;;;;;;;25.73;16.73;;;5.30;99.90;;;;;;4970363;28;20026;-76
2023/04/08 06:29:46;;;;;;;26.38;16.38;;;5.30;99.90;;;;;;4968037;28;20049;-76
2023/04/08 06:32:12;;;;;;;27.25;16.98;;;5.40;99.90;;;;;;4973043;28;20565;-76
2023/04/08 06:34:37;;;;;;;28.08;16.95;;;5.40;99.90;;;;;;4991912;28;20045;-76
2023/04/08 06:37:03;;;;;;;27.30;16.88;;;5.40;99.90;;;;;;4985611;28;20038;-75
2023/04/08 06:39:28;;;;;;;27.92;17.48;;;5.40;99.90;;;;;;4965975;28;20097;-76
2023/04/08 06:41:54;;;;;;;27.08;17.08;;;5.50;99.90;;;;;;4970491;28;20079;-76
2023/04/08 06:44:19;;;;;;;31.85;16.52;;;5.60;99.90;;;;;;4965009;28;20094;-76
2023/04/08 06:46:45;;;;;;;28.67;17.30;;;5.60;99.90;;;;;;4961649;28;20034;-76
2023/04/08 06:49:11;;;;;;;27.35;17.23;;;5.60;99.90;;;;;;4963362;28;20131;-76
2023/04/08 06:51:37;;;;;;;27.92;17.33;;;5.70;99.90;;;;;;4989245;28;20041;-76
2023/04/08 06:54:03;;;;;;;27.55;17.38;;;5.70;99.90;;;;;;4977203;28;20487;-76
2023/04/08 06:56:28;;;;;;;27.92;16.38;;;5.70;99.90;;;;;;4962143;28;20130;-76
2023/04/08 06:58:54;;;;;;;28.85;17.25;;;5.80;99.90;;;;;;4976141;28;20041;-76
2023/04/08 07:01:20;;;;;;;27.75;17.35;;;5.80;99.90;;;;;;4963458;28;20038;-76
2023/04/08 07:03:45;;;;;;;31.25;17.50;;;5.80;99.90;;;;;;4972950;28;20073;-76
2023/04/08 07:06:11;;;;;;;29.77;17.75;;;5.90;99.90;;;;;;4969765;28;20092;-76
2023/04/08 07:08:36;;;;;;;28.63;17.27;;;5.90;99.90;;;;;;4958988;28;20455;-76
2023/04/08 07:11:02;;;;;;;31.02;18.17;;;6.00;99.90;;;;;;4980747;28;20487;-76
2023/04/08 07:13:28;;;;;;;29.33;17.90;;;6.00;99.90;;;;;;4985092;28;20038;-76
2023/04/08 07:15:54;;;;;;;27.77;17.25;;;6.00;99.90;;;;;;4972771;28;20108;-76
2023/04/08 07:18:20;;;;;;;29.38;17.63;;;6.10;99.90;;;;;;4969425;28;20042;-75
2023/04/08 07:20:52;;;;;;;27.92;17.08;;;6.10;99.90;;;;;;4954396;28;20511;-76
2023/04/08 07:23:19;;;;;;;27.10;17.40;;;6.20;99.90;;;;;;4977185;28;20043;-76
2023/04/08 07:25:45;;;;;;;29.88;18.55;;;6.30;99.90;;;;;;4984534;28;20450;-76
2023/04/08 07:28:11;;;;;;;29.13;18.52;;;6.30;99.90;;;;;;4969216;28;20372;-76
2023/04/08 07:30:37;;;;;;;30.30;17.92;;;6.40;99.90;;;;;;4983646;28;20083;-76
2023/04/08 07:33:02;;;;;;;29.05;18.95;;;6.40;99.90;;;;;;4964799;28;20046;-75
2023/04/08 07:35:28;;;;;;;28.80;18.52;;;6.50;99.90;;;;;;4965280;28;20046;-76
2023/04/08 07:37:54;;;;;;;29.17;17.58;;;6.60;99.90;;;;;;4957889;28;20073;-75
2023/04/08 07:40:19;;;;;;;29.80;18.50;;;6.70;99.90;;;;;;4946629;28;20057;-76
2023/04/08 07:42:45;;;;;;;31.48;18.52;;;6.80;99.90;;;;;;4967517;28;20038;-76
2023/04/08 07:45:11;;;;;;;30.90;19.00;;;6.80;99.90;;;;;;4973521;28;20403;-75
2023/04/08 07:47:36;;;;;;;29.17;18.27;;;6.90;99.90;;;;;;4970701;28;20048;-75
2023/04/08 07:50:03;;;;;;;29.15;18.63;;;7.00;99.90;;;;;;4972401;28;20479;-76
2023/04/08 07:52:32;;;;;;;30.15;17.83;;;7.10;99.90;;;;;;4968732;28;20482;-76
2023/04/08 07:54:58;;;;;;;30.75;19.58;;;7.20;99.90;;;;;;4973344;28;20042;-76
2023/04/08 07:57:25;;;;;;;29.30;17.52;;;7.30;99.90;;;;;;4980651;28;20046;-75
2023/04/08 07:59:50;;;;;;;29.70;17.60;;;7.40;99.90;;;;;;4973517;28;20124;-76
2023/04/08 08:02:16;;;;;;;31.13;17.33;;;7.50;99.90;;;;;;4947044;28;20591;-76
2023/04/08 08:04:41;;;;;;;30.17;18.35;;;7.60;99.90;;;;;;4965024;28;20134;-76
2023/04/08 08:07:07;;;;;;;29.67;18.60;;;7.60;99.90;;;;;;4966167;28;20086;-75
2023/04/08 08:09:32;;;;;;;27.50;17.10;;;7.70;99.90;;;;;;4965359;28;20042;-76
2023/04/08 08:11:58;;;;;;;32.22;18.35;;;7.70;99.90;;;;;;4970136;28;20072;-76
2023/04/08 08:14:25;;;;;;;30.77;18.27;;;7.70;99.90;;;;;;4943614;28;20046;-76
2023/04/08 08:16:51;;;;;;;28.85;18.48;;;7.70;99.90;;;;;;4963228;28;20503;-75
2023/04/08 08:19:17;;;;;;;27.50;17.58;;;7.70;99.90;;;;;;4949720;28;20049;-75
2023/04/08 08:21:42;;;;;;;28.25;16.75;;;8.60;99.90;;;;;;4957077;28;20066;-75
2023/04/08 08:24:08;;;;;;;28.73;17.23;;;7.70;99.90;;;;;;4966015;28;20038;-75
2023/04/08 08:26:35;;;;;;;26.08;16.73;;;7.70;99.90;;;;;;4968610;28;20073;-76
2023/04/08 08:29:01;;;;;;;25.67;16.25;;;7.70;99.90;;;;;;4966984;28;20111;-76
2023/04/08 08:31:27;;;;;;;25.75;15.95;;;7.70;99.90;;;;;;4960826;28;20545;-76
2023/04/08 08:33:52;;;;;;;25.10;15.13;;;7.70;99.90;;;;;;4966060;28;20410;-75
2023/04/08 08:36:18;;;;;;;24.35;15.98;;;7.60;99.90;;;;;;4968469;28;20046;-75
2023/04/08 08:38:43;;;;;;;27.50;15.73;;;7.70;99.90;;;;;;4991020;28;20042;-75
2023/04/08 08:41:09;;;;;;;28.52;16.48;;;7.70;99.90;;;;;;4966769;28;20390;-75
2023/04/08 08:43:35;;;;;;;25.23;14.90;;;7.70;99.90;;;;;;4957499;28;20047;-75
2023/04/08 08:46:00;;;;;;;26.88;16.13;;;7.70;99.90;;;;;;4986002;28;20060;-75
2023/04/08 08:48:26;;;;;;;25.65;15.93;;;7.80;99.90;;;;;;4971429;28;20046;-75
2023/04/08 08:50:52;;;;;;;24.83;15.85;;;7.80;99.90;;;;;;4973388;28;20042;-75
2023/04/08 08:53:19;;;;;;;24.90;15.30;;;7.90;99.90;;;;;;4964391;28;20044;-75
2023/04/08 08:55:45;;;;;;;26.30;16.23;;;8.00;99.90;;;;;;4962715;28;20129;-76
2023/04/08 08:58:10;;;;;;;23.95;14.93;;;8.10;99.90;;;;;;4983881;28;20113;-76
2023/04/08 09:00:37;;;;;;;24.27;15.18;;;8.30;99.90;;;;;;4973734;28;20558;-76
2023/04/08 09:03:26;;;;;;;23.17;15.75;;;8.50;99.90;;;;;;4963713;28;20038;-76
2023/04/08 09:05:51;;;;;;;24.63;16.55;;;8.60;99.90;;;;;;4966021;28;20525;-76
2023/04/08 09:08:43;;;;;;;24.33;16.13;;;8.70;99.90;;;;;;4962289;28;20042;-76
2023/04/08 09:11:17;;;;;;;21.50;13.87;;;8.90;99.90;;;;;;4970161;28;20042;-76
2023/04/08 09:13:45;;;;;;;21.73;14.48;;;9.10;99.90;;;;;;4973072;28;20380;-76
2023/04/08 09:16:16;;;;;;;23.17;14.80;;;9.30;99.90;;;;;;4964091;28;20081;-76
2023/04/08 09:18:44;;;;;;;25.30;15.38;;;9.50;99.90;;;;;;4977502;28;20048;-74
2023/04/08 09:21:11;;;;;;;23.05;14.55;;;9.70;99.90;;;;;;4958739;28;20199;-74
2023/04/08 09:23:39;;;;;;;20.58;14.43;;;9.80;99.90;;;;;;4966554;28;20082;-74
2023/04/08 09:26:15;;;;;;;19.33;13.07;;;9.90;99.90;;;;;;4965649;28;20122;-74
2023/04/08 09:28:43;;;;;;;20.13;12.98;;;10.10;99.90;;;;;;4968898;28;20073;-74
2023/04/08 09:31:29;;;;;;;17.52;12.98;;;10.30;99.90;;;;;;4947066;28;20051;-74
2023/04/08 09:34:03;;;;;;;19.60;13.68;;;10.50;99.90;;;;;;4993340;28;20042;-74
2023/04/08 09:36:28;;;;;;;21.17;14.20;;;10.70;99.90;;;;;;4977072;28;20061;-74
2023/04/08 09:38:55;;;;;;;17.58;12.32;;;10.90;99.90;;;;;;4977339;28;20120;-74
2023/04/08 09:41:23;;;;;;;17.20;13.13;;;11.10;99.90;;;;;;4959699;28;20042;-74
2023/04/08 09:43:59;;;;;;;18.70;14.20;;;11.30;99.90;;;;;;4981715;28;20120;-74
2023/04/08 09:47:03;;;;;;;18.83;13.57;;;11.50;99.90;;;;;;4976797;28;20057;-74
2023/04/08 09:49:53;;;;;;;18.42;13.15;;;11.60;99.90;;;;;;4963339;28;20047;-74
2023/04/08 09:52:32;;;;;;;17.63;13.70;;;11.70;99.90;;;;;;4949194;28;20042;-74
2023/04/08 09:55:03;;;;;;;29.77;13.38;;;12.00;99.90;;;;;;4975279;28;20050;-74
2023/04/08 09:58:00;;;;;;;18.48;13.60;;;12.10;99.90;;;;;;4970909;28;20049;-74
2023/04/08 10:00:37;;;;;;;16.90;13.32;;;12.20;99.90;;;;;;4966626;28;20502;-75
2023/04/08 10:03:17;;;;;;;15.00;12.18;;;12.30;99.90;;;;;;4980235;28;20053;-74
2023/04/08 10:05:45;;;;;;;14.23;11.52;;;12.30;99.90;;;;;;4974979;28;20056;-75
2023/04/08 10:08:12;;;;;;;16.60;12.77;;;12.50;99.90;;;;;;4965397;28;20182;-75
2023/04/08 10:10:39;;;;;;;16.90;12.15;;;12.60;99.90;;;;;;4983719;28;20453;-74
2023/04/08 10:13:06;;;;;;;16.90;13.57;;;12.80;99.90;;;;;;4974575;28;20046;-74
2023/04/08 10:15:33;;;;;;;18.50;13.73;;;13.00;99.90;;;;;;4987510;28;20052;-74
2023/04/08 10:18:03;;;;;;;16.73;13.40;;;13.10;99.90;;;;;;4980340;28;20046;-75
2023/04/08 10:20:35;;;;;;;17.45;12.63;;;13.30;99.90;;;;;;4968322;28;20112;-74
2023/04/08 10:23:14;;;;;;;16.10;12.98;;;13.40;99.90;;;;;;4968400;28;20494;-74
2023/04/08 10:25:41;;;;;;;16.92;12.40;;;13.50;99.90;;;;;;4976453;28;20048;-74
2023/04/08 10:28:10;;;;;;;15.45;12.57;;;13.60;99.90;;;;;;4974101;28;20051;-75
2023/04/08 10:30:38;;;;;;;15.60;11.75;;;13.80;99.90;;;;;;4977824;28;20047;-74
2023/04/08 10:33:33;;;;;;;17.65;12.02;;;13.80;99.90;;;;;;4975757;28;20046;-75
2023/04/08 10:36:01;;;;;;;14.35;11.13;;;13.90;99.90;;;;;;4971675;28;20057;-75
2023/04/08 10:38:27;;;;;;;13.90;11.77;;;13.90;99.90;;;;;;4975403;28;20112;-75
2023/04/08 10:40:53;;;;;;;16.55;12.20;;;14.00;99.90;;;;;;4992428;28;20465;-75
2023/04/08 10:43:19;;;;;;;13.73;11.60;;;14.00;99.90;;;;;;4969204;28;20038;-74
2023/04/08 10:45:45;;;;;;;14.48;11.75;;;13.90;99.90;;;;;;4980122;28;20039;-76
2023/04/08 10:48:23;;;;;;;14.73;11.95;;;13.90;99.90;;;;;;4968777;28;20085;-78
2023/04/08 10:51:05;;;;;;;16.05;11.90;;;14.00;99.90;;;;;;4988116;28;20090;-77
2023/04/08 10:53:36;;;;;;;14.13;11.10;;;14.10;99.90;;;;;;4968276;28;20419;-77
2023/04/08 10:56:14;;;;;;;13.80;10.57;;;14.30;99.90;;;;;;4973970;28;20054;-76
2023/04/08 10:58:55;;;;;;;16.45;11.10;;;14.40;99.90;;;;;;4989063;28;20054;-75
2023/04/08 11:01:20;;;;;;;14.90;10.88;;;14.50;99.90;;;;;;4958058;28;20184;-75
2023/04/08 11:03:46;;;;;;;15.30;11.60;;;14.60;99.90;;;;;;4959785;28;20102;-75
2023/04/08 11:06:12;;;;;;;14.75;11.23;;;14.70;99.90;;;;;;4967362;28;20053;-75
2023/04/08 11:08:38;;;;;;;14.25;10.93;;;14.70;99.90;;;;;;4969462;28;20045;-75
2023/04/08 11:11:10;;;;;;;13.68;11.45;;;14.90;99.90;;;;;;4969043;28;20097;-76
2023/04/08 11:13:45;;;;;;;14.50;11.15;;;14.90;99.90;;;;;;4978920;28;20049;-76
2023/04/08 11:16:11;;;;;;;13.23;10.60;;;15.00;99.90;;;;;;4966213;28;20038;-76
2023/04/08 11:18:38;;;;;;;15.43;10.23;;;15.10;99.90;;;;;;4975686;28;20050;-76
2023/04/08 11:21:08;;;;;;;13.73;10.95;;;15.20;99.90;;;;;;4971715;28;20047;-76
2023/04/08 11:23:35;;;;;;;13.20;11.02;;;15.20;99.90;;;;;;4965504;28;20042;-76
2023/04/08 11:26:01;;;;;;;12.65;10.25;;;15.30;99.90;;;;;;4945476;28;20406;-76
2023/04/08 11:28:27;;;;;;;15.45;10.50;;;15.40;99.90;;;;;;4974200;28;20495;-74
2023/04/08 11:30:54;;;;;;;14.90;11.18;;;15.40;99.90;;;;;;4988809;28;20085;-74
2023/04/08 11:33:20;;;;;;;11.80;9.98;;;15.40;99.90;;;;;;4967584;28;20384;-75
2023/04/08 11:35:49;;;;;;;12.73;10.57;;;15.40;99.90;;;;;;4973560;28;20042;-75
2023/04/08 11:38:14;;;;;;;14.98;11.07;;;15.50;99.90;;;;;;4964504;28;20034;-74
2023/04/08 11:40:55;;;;;;;12.07;10.43;;;15.60;99.90;;;;;;4981059;28;20073;-75
2023/04/08 11:43:22;;;;;;;12.20;10.45;;;15.60;99.90;;;;;;4975374;28;20039;-74
2023/04/08 11:45:47;;;;;;;12.60;10.77;;;15.60;99.90;;;;;;4963894;28;20126;-74
2023/04/08 11:48:15;;;;;;;12.02;10.20;;;15.70;99.90;;;;;;4958507;28;20125;-75
2023/04/08 11:50:41;;;;;;;13.50;11.32;;;15.80;99.90;;;;;;4971477;28;20117;-75
2023/04/08 11:53:24;;;;;;;13.40;10.75;;;15.70;99.90;;;;;;4962517;28;20088;-76
2023/04/08 11:55:50;;;;;;;13.10;11.55;;;15.60;99.90;;;;;;4963690;28;20038;-75
2023/04/08 11:58:16;;;;;;;14.43;12.15;;;15.50;99.90;;;;;;4977804;28;20113;-75
2023/04/08 12:00:43;;;;;;;12.45;10.90;;;15.50;99.90;;;;;;4967032;28;20085;-74
2023/04/08 12:03:09;;;;;;;14.18;11.98;;;15.50;99.90;;;;;;4969655;28;20042;-75
2023/04/08 12:05:35;;;;;;;13.85;11.20;;;15.60;99.90;;;;;;4982344;28;20054;-75
2023/04/08 12:08:01;;;;;;;13.77;10.57;;;15.60;99.90;;;;;;4963590;28;20031;-76
2023/04/08 12:10:26;;;;;;;11.65;10.27;;;15.60;99.90;;;;;;4944456;28;20058;-73
2023/04/08 12:12:52;;;;;;;13.68;10.95;;;15.50;99.90;;;;;;4966854;28;20498;-74
2023/04/08 12:15:18;;;;;;;11.45;9.38;;;15.50;99.90;;;;;;4969174;28;20049;-74
2023/04/08 12:17:44;;;;;;;12.20;9.90;;;15.60;99.90;;;;;;4965211;28;20047;-76
2023/04/08 12:20:10;;;;;;;11.00;9.60;;;15.70;99.90;;;;;;4969611;28;20042;-76
2023/04/08 12:22:36;;;;;;;11.48;9.30;;;15.70;99.90;;;;;;4970557;28;20076;-73
2023/04/08 12:25:02;;;;;;;13.20;9.77;;;15.70;99.90;;;;;;4981864;28;20050;-75
2023/04/08 12:27:29;;;;;;;10.63;8.98;;;15.60;99.90;;;;;;4963250;28;20606;-75
2023/04/08 12:29:55;;;;;;;11.88;9.63;;;15.60;99.90;;;;;;4977990;28;20042;-74
2023/04/08 12:32:21;;;;;;;11.68;8.50;;;15.50;99.90;;;;;;4969055;28;20491;-73
2023/04/08 12:34:46;;;;;;;13.18;9.02;;;15.50;99.90;;;;;;4971914;28;20034;-74
2023/04/08 12:37:12;;;;;;;11.60;8.75;;;15.60;99.90;;;;;;4968289;28;20117;-73
2023/04/08 12:39:38;;;;;;;11.32;8.73;;;15.60;99.90;;;;;;4971554;28;20050;-73